createdAt,value
2019-04-01T00:00:47.037Z,23.30
2019-04-01T00:03:31.431Z,20.17
2019-04-01T00:06:14.639Z,22.17
2019-04-01T00:17:35.187Z,23.40
2019-04-01T00:20:17.690Z,22.97
2019-04-01T00:23:00.561Z,21.33
2019-04-01T00:25:43.018Z,24.67
2019-04-01T00:28:25.482Z,21.73
2019-04-01T00:31:07.507Z,23.30
2019-04-01T00:33:50.101Z,21.60
2019-04-01T00:36:32.877Z,21.73
2019-04-01T00:39:15.517Z,24.87
2019-04-01T00:45:14.787Z,24.07
2019-04-01T00:47:58.601Z,25.13
2019-04-01T00:53:32.227Z,24.83
2019-04-01T00:59:08.923Z,34.20
2019-04-01T02:02:24.453Z,15.83
2019-04-01T02:05:08.222Z,16.23
2019-04-01T02:07:50.609Z,21.87
2019-04-01T02:10:32.876Z,20.37
2019-04-01T02:13:15.573Z,19.47
2019-04-01T02:15:57.734Z,18.73
2019-04-01T02:18:39.807Z,19.03
2019-04-01T02:21:22.902Z,14.33
2019-04-01T02:24:05.334Z,17.13
2019-04-01T02:26:48.014Z,19.10
2019-04-01T02:29:30.860Z,16.17
2019-04-01T02:32:17.246Z,16.90
2019-04-01T02:35:00.298Z,14.60
2019-04-01T02:37:43.705Z,14.03
2019-04-01T02:40:26.248Z,14.13
2019-04-01T02:43:08.967Z,14.47
2019-04-01T02:45:51.283Z,14.97
2019-04-01T02:48:34.342Z,16.80
2019-04-01T02:51:17.507Z,14.83
2019-04-01T02:53:59.509Z,11.67
2019-04-01T02:56:42.883Z,14.90
2019-04-01T03:02:22.732Z,13.80
2019-04-01T03:05:05.039Z,13.10
2019-04-01T03:07:51.846Z,13.13
2019-04-01T03:10:34.741Z,11.47
2019-04-01T03:13:17.796Z,12.43
2019-04-01T03:16:01.112Z,12.63
2019-04-01T03:18:44.044Z,15.03
2019-04-01T03:21:26.544Z,14.53
2019-04-01T03:24:09.452Z,15.03
2019-04-01T03:26:51.564Z,16.23
2019-04-01T03:29:34.357Z,13.53
2019-04-01T03:32:16.928Z,13.43
2019-04-01T03:34:59.900Z,13.80
2019-04-01T03:37:43.011Z,11.13
2019-04-01T03:40:25.807Z,17.80
2019-04-01T03:43:08.964Z,14.93
2019-04-01T03:51:36.117Z,15.60
2019-04-01T03:54:18.703Z,12.27
2019-04-01T03:59:49.551Z,11.13
2019-04-01T04:02:31.766Z,14.37
2019-04-01T04:05:14.682Z,15.60
2019-04-01T04:07:57.731Z,16.13
2019-04-01T04:10:40.847Z,12.13
2019-04-01T04:13:24.106Z,13.27
2019-04-01T04:18:48.950Z,11.60
2019-04-01T04:21:32.090Z,13.80
2019-04-01T04:24:14.375Z,11.57
2019-04-01T04:26:57.486Z,11.27
2019-04-01T04:35:18.252Z,14.37
2019-04-01T04:43:48.071Z,12.67
2019-04-01T04:46:30.738Z,14.60
2019-04-01T04:49:13.590Z,13.77
2019-04-01T04:51:56.490Z,14.93
2019-04-01T04:54:39.354Z,15.30
2019-04-01T04:57:22.569Z,13.77
2019-04-01T05:00:06.307Z,14.67
2019-04-01T05:05:38.910Z,17.70
2019-04-01T05:08:21.735Z,15.57
2019-04-01T05:11:04.877Z,11.33
2019-04-01T05:13:47.728Z,15.97
2019-04-01T05:16:29.906Z,11.87
2019-04-01T05:21:56.895Z,15.20
2019-04-01T05:24:40.081Z,12.40
2019-04-01T05:27:22.925Z,12.33
2019-04-01T05:30:05.415Z,11.97
2019-04-01T05:32:48.262Z,13.23
2019-04-01T05:35:36.178Z,11.13
2019-04-01T05:38:19.397Z,11.83
2019-04-01T05:41:02.070Z,15.77
2019-04-01T05:43:45.215Z,13.47
2019-04-01T05:46:28.598Z,13.63
2019-04-01T05:49:11.207Z,11.10
2019-04-01T05:51:54.001Z,12.40
2019-04-01T05:54:37.445Z,13.70
2019-04-01T05:57:20.312Z,12.87
2019-04-01T06:00:03.674Z,11.53
2019-04-01T06:02:46.971Z,11.97
2019-04-01T06:05:29.147Z,13.63
2019-04-01T06:08:12.529Z,14.10
2019-04-01T06:10:54.896Z,12.43
2019-04-01T06:13:38.438Z,13.90
2019-04-01T06:16:20.782Z,9.23
2019-04-01T06:19:05.838Z,12.83
2019-04-01T06:21:47.025Z,10.13
2019-04-01T06:24:29.804Z,11.67
2019-04-01T06:27:13.247Z,9.67
2019-04-01T06:29:59.126Z,14.43
2019-04-01T06:32:40.679Z,12.33
2019-04-01T06:35:23.899Z,10.03
2019-04-01T06:38:06.398Z,11.37
2019-04-01T06:40:50.434Z,10.33
2019-04-01T06:43:33.546Z,9.67
2019-04-01T06:46:18.511Z,14.60
2019-04-01T06:49:00.940Z,10.53
2019-04-01T06:51:43.334Z,11.87
2019-04-01T06:54:26.238Z,9.43
2019-04-01T06:57:09.707Z,9.47
2019-04-01T06:59:52.858Z,9.93
2019-04-01T07:02:35.693Z,14.07
2019-04-01T07:05:19.713Z,11.13
2019-04-01T07:08:02.967Z,11.17
2019-04-01T07:10:45.465Z,9.37
2019-04-01T07:13:28.198Z,9.23
2019-04-01T07:16:15.802Z,9.87
2019-04-01T07:18:55.149Z,7.87
2019-04-01T07:21:40.245Z,12.93
2019-04-01T07:24:22.909Z,10.67
2019-04-01T07:27:08.100Z,10.10
2019-04-01T07:32:46.365Z,10.53
2019-04-01T07:35:29.668Z,9.70
2019-04-01T07:38:12.160Z,9.23
2019-04-01T07:40:55.110Z,10.27
2019-04-01T07:43:37.479Z,7.47
2019-04-01T07:46:18.947Z,7.17
2019-04-01T07:49:01.428Z,9.57
2019-04-01T07:51:43.806Z,6.03
2019-04-01T07:57:16.858Z,8.00
2019-04-01T07:59:59.739Z,8.73
2019-04-01T08:02:42.602Z,8.33
2019-04-01T08:05:26.578Z,7.30
2019-04-01T08:08:13.896Z,7.43
2019-04-01T08:10:56.991Z,6.03
2019-04-01T08:13:39.451Z,11.47
2019-04-01T08:22:09.699Z,7.47
2019-04-01T08:24:52.756Z,8.23
2019-04-01T08:27:35.554Z,10.67
2019-04-01T08:30:18.655Z,8.47
2019-04-01T08:35:48.788Z,9.73
2019-04-01T08:38:31.774Z,6.13
2019-04-01T08:41:15.567Z,9.07
2019-04-01T08:43:58.254Z,7.93
2019-04-01T08:46:41.502Z,12.13
2019-04-01T08:49:24.311Z,7.07
2019-04-01T08:52:08.420Z,9.43
2019-04-01T08:54:52.266Z,8.37
2019-04-01T08:57:34.948Z,9.07
2019-04-01T09:09:07.659Z,10.23
2019-04-01T09:11:53.566Z,14.57
2019-04-01T09:14:36.529Z,13.30
2019-04-01T09:17:19.086Z,13.47
2019-04-01T09:20:01.830Z,12.43
2019-04-01T09:22:44.334Z,14.70
2019-04-01T09:25:27.251Z,14.13
2019-04-01T09:28:10.370Z,14.37
2019-04-01T09:30:53.726Z,12.73
2019-04-01T09:33:36.746Z,14.93
2019-04-01T09:36:19.507Z,14.57
2019-04-01T09:39:02.692Z,13.90
2019-04-01T09:41:45.874Z,14.20
2019-04-01T09:44:36.822Z,15.87
2019-04-01T09:47:12.911Z,14.87
2019-04-01T09:49:55.696Z,11.63
2019-04-01T09:58:10.739Z,15.83
2019-04-01T10:00:53.692Z,15.27
2019-04-01T10:03:37.189Z,16.00
2019-04-01T10:06:22.867Z,15.27
2019-04-01T10:09:06.787Z,16.63
2019-04-01T10:11:50.214Z,16.37
2019-04-01T10:14:32.914Z,18.43
2019-04-01T10:17:15.848Z,16.07
2019-04-01T10:20:00.906Z,14.93
2019-04-01T10:22:42.395Z,16.70
2019-04-01T10:25:25.717Z,16.70
2019-04-01T10:28:07.821Z,16.40
2019-04-01T10:30:50.710Z,16.23
2019-04-01T10:36:14.307Z,18.90
2019-04-01T10:41:47.742Z,19.43
2019-04-01T10:47:20.063Z,19.17
2019-04-01T10:50:04.166Z,14.50
2019-04-01T10:52:46.511Z,23.97
2019-04-01T10:55:30.186Z,17.60
2019-04-01T10:58:12.924Z,15.73
2019-04-01T11:00:55.843Z,18.83
2019-04-01T11:03:38.771Z,15.57
2019-04-01T11:06:20.774Z,20.03
2019-04-01T11:09:05.320Z,16.00
2019-04-01T11:11:48.010Z,17.00
2019-04-01T11:14:31.106Z,16.87
2019-04-01T11:17:15.267Z,14.23
2019-04-01T11:19:59.377Z,14.90
2019-04-01T11:25:32.875Z,14.53
2019-04-01T11:28:15.178Z,17.77
2019-04-01T11:33:48.385Z,15.13
2019-04-01T11:36:32.077Z,15.33
2019-04-01T11:39:16.091Z,18.77
2019-04-01T11:42:01.525Z,14.90
2019-04-01T11:44:44.620Z,16.37
2019-04-01T11:47:29.270Z,16.93
2019-04-01T11:50:11.537Z,14.67
2019-04-01T11:52:56.948Z,15.67
2019-04-01T11:55:41.427Z,17.30
2019-04-01T11:58:24.196Z,17.30
2019-04-01T12:01:07.527Z,16.67
2019-04-01T12:03:54.435Z,20.80
2019-04-01T12:06:36.775Z,16.20
2019-04-01T12:15:06.073Z,15.23
2019-04-01T12:17:48.567Z,14.57
2019-04-01T12:20:31.866Z,16.67
2019-04-01T12:23:14.777Z,14.77
2019-04-01T12:25:57.523Z,16.20
2019-04-01T12:28:40.593Z,13.73
2019-04-01T12:31:23.314Z,15.30
2019-04-01T12:34:05.727Z,15.17
2019-04-01T12:36:49.274Z,13.90
2019-04-01T12:39:32.246Z,13.93
2019-04-01T12:45:15.619Z,13.83
2019-04-01T12:47:58.382Z,14.83
2019-04-01T12:57:26.950Z,12.50
2019-04-01T12:59:58.662Z,15.50
2019-04-01T13:02:29.766Z,17.00
2019-04-01T13:05:01.094Z,14.80
2019-04-01T13:07:31.812Z,14.63
2019-04-01T13:10:03.749Z,17.77
2019-04-01T13:12:35.939Z,12.60
2019-04-01T13:15:08.073Z,13.33
2019-04-01T13:17:39.419Z,13.80
2019-04-01T13:20:11.006Z,13.23
2019-04-01T13:22:42.826Z,12.60
2019-04-01T13:25:13.793Z,13.57
2019-04-01T13:27:45.227Z,16.17
2019-04-01T13:30:16.894Z,13.10
2019-04-01T13:32:48.816Z,13.37
2019-04-01T13:35:20.710Z,13.00
2019-04-01T13:37:52.397Z,13.57
2019-04-01T13:40:24.007Z,17.07
2019-04-01T13:42:55.483Z,13.23
2019-04-01T13:45:31.422Z,13.40
2019-04-01T13:48:00.313Z,13.27
2019-04-01T13:50:33.494Z,14.40
2019-04-01T13:53:04.541Z,14.63
2019-04-01T13:55:38.135Z,16.10
2019-04-01T13:58:10.521Z,13.63
2019-04-01T14:00:42.397Z,13.50
2019-04-01T14:03:13.831Z,15.53
2019-04-01T14:05:45.087Z,12.70
2019-04-01T14:08:16.122Z,13.53
2019-04-01T14:10:48.201Z,13.83
2019-04-01T14:13:19.384Z,11.93
2019-04-01T14:15:51.478Z,11.60
2019-04-01T14:18:22.801Z,12.67
2019-04-01T14:20:54.499Z,10.83
2019-04-01T14:23:26.325Z,12.83
2019-04-01T14:25:58.222Z,12.30
2019-04-01T14:28:29.387Z,12.63
2019-04-01T14:31:01.007Z,12.90
2019-04-01T14:33:32.701Z,13.77
2019-04-01T14:36:04.917Z,12.77
2019-04-01T14:38:36.966Z,11.37
2019-04-01T14:41:08.101Z,10.93
2019-04-01T14:43:40.306Z,13.70
2019-04-01T14:46:12.194Z,10.97
2019-04-01T14:48:44.449Z,10.77
2019-04-01T14:51:15.794Z,12.30
2019-04-01T14:53:47.141Z,10.27
2019-04-01T14:56:19.043Z,10.17
2019-04-01T14:58:50.391Z,11.10
2019-04-01T15:01:22.226Z,10.60
2019-04-01T15:03:54.253Z,9.30
2019-04-01T15:06:25.423Z,10.70
2019-04-01T15:08:58.118Z,10.73
2019-04-01T15:11:30.607Z,10.03
2019-04-01T15:14:02.447Z,10.47
2019-04-01T15:16:33.482Z,11.70
2019-04-01T15:19:04.518Z,9.87
2019-04-01T15:21:35.994Z,12.13
2019-04-01T15:24:07.648Z,9.93
2019-04-01T15:26:39.188Z,9.90
2019-04-01T15:29:11.210Z,9.87
2019-04-01T15:31:42.916Z,9.20
2019-04-01T15:34:14.633Z,8.80
2019-04-01T15:36:47.040Z,9.53
2019-04-01T15:39:18.071Z,12.07
2019-04-01T15:41:49.590Z,10.53
2019-04-01T15:44:21.599Z,9.43
2019-04-01T15:46:53.147Z,8.57
2019-04-01T15:49:25.490Z,9.00
2019-04-01T15:51:57.173Z,10.03
2019-04-01T15:54:29.326Z,8.83
2019-04-01T15:57:01.318Z,8.73
2019-04-01T15:59:32.699Z,10.17
2019-04-01T16:02:04.398Z,9.97
2019-04-01T16:04:37.214Z,15.20
2019-04-01T16:07:08.541Z,9.80
2019-04-01T16:09:44.582Z,12.20
2019-04-01T16:12:16.585Z,8.87
2019-04-01T16:14:48.166Z,12.17
2019-04-01T16:17:20.748Z,10.93
2019-04-01T16:19:52.662Z,9.70
2019-04-01T16:22:23.647Z,9.43
2019-04-01T16:24:56.358Z,10.37
2019-04-01T16:27:27.394Z,9.73
2019-04-01T16:29:59.851Z,9.33
2019-04-01T16:32:31.858Z,7.63
2019-04-01T16:35:03.480Z,8.03
2019-04-01T16:37:35.254Z,8.00
2019-04-01T16:40:06.994Z,8.80
2019-04-01T16:42:39.036Z,8.30
2019-04-01T16:45:10.946Z,10.40
2019-04-01T16:47:42.574Z,16.03
2019-04-01T16:50:15.411Z,21.07
2019-04-01T16:52:47.178Z,14.83
2019-04-01T16:55:18.819Z,9.07
2019-04-01T16:57:50.463Z,9.90
2019-04-01T17:00:21.641Z,8.87
2019-04-01T17:02:52.391Z,7.77
2019-04-01T17:05:29.666Z,8.63
2019-04-01T17:08:01.209Z,8.40
2019-04-01T17:10:33.496Z,8.70
2019-04-01T17:13:07.314Z,8.60
2019-04-01T17:15:38.654Z,6.43
2019-04-01T17:18:11.005Z,8.57
2019-04-01T17:20:42.632Z,7.87
2019-04-01T17:23:15.419Z,12.80
2019-04-01T17:25:46.430Z,9.43
2019-04-01T17:28:17.779Z,6.60
2019-04-01T17:30:48.454Z,9.40
2019-04-01T17:33:19.604Z,7.53
2019-04-01T17:35:51.698Z,7.50
2019-04-01T17:38:23.973Z,7.17
2019-04-01T17:40:55.438Z,8.03
2019-04-01T17:43:27.413Z,10.17
2019-04-01T17:46:01.533Z,9.00
2019-04-01T17:48:33.901Z,6.17
2019-04-01T17:51:05.934Z,5.50
2019-04-01T17:53:36.639Z,5.37
2019-04-01T17:56:08.051Z,9.73
2019-04-01T17:58:40.362Z,4.73
2019-04-01T18:01:16.465Z,4.87
2019-04-01T18:03:48.018Z,8.57
2019-04-01T18:06:21.750Z,13.07
2019-04-01T18:08:55.311Z,11.45
2019-04-01T18:11:29.494Z,8.67
2019-04-01T18:14:02.902Z,13.87
2019-04-01T18:16:34.305Z,7.90
2019-04-01T18:19:06.339Z,6.63
2019-04-01T18:21:38.643Z,8.13
2019-04-01T18:24:10.173Z,9.67
2019-04-01T18:26:42.077Z,16.67
2019-04-01T18:29:13.202Z,12.23
2019-04-01T18:31:45.058Z,13.60
2019-04-01T18:34:16.230Z,8.43
2019-04-01T18:36:48.784Z,9.10
2019-04-01T18:39:21.045Z,12.40
2019-04-01T18:41:52.226Z,11.53
2019-04-01T18:44:24.480Z,13.07
2019-04-01T18:46:57.938Z,16.50
2019-04-01T18:49:29.102Z,16.90
2019-04-01T18:52:03.542Z,20.33
2019-04-01T18:54:35.886Z,13.23
2019-04-01T18:57:06.973Z,12.47
2019-04-01T18:59:38.766Z,11.83
2019-04-01T19:02:09.830Z,13.20
2019-04-01T19:04:41.411Z,15.70
2019-04-01T19:07:14.027Z,14.37
2019-04-01T19:09:45.270Z,10.63
2019-04-01T19:12:17.126Z,11.87
2019-04-01T19:14:50.260Z,10.03
2019-04-01T19:17:33.783Z,9.93
2019-04-01T19:20:05.770Z,8.43
2019-04-01T19:22:37.211Z,9.23
2019-04-01T19:25:10.415Z,9.60
2019-04-01T19:27:42.216Z,11.73
2019-04-01T19:30:15.485Z,11.30
2019-04-01T19:32:46.580Z,7.40
2019-04-01T19:35:19.817Z,8.73
2019-04-01T19:37:51.670Z,10.43
2019-04-01T19:40:23.469Z,6.60
2019-04-01T19:42:55.637Z,8.00
2019-04-01T19:45:26.717Z,6.50
2019-04-01T19:47:58.214Z,8.30
2019-04-01T19:50:31.121Z,6.83
2019-04-01T19:53:02.931Z,7.23
2019-04-01T19:55:36.453Z,7.63
2019-04-01T19:58:08.138Z,6.70
2019-04-01T20:00:39.702Z,7.77
2019-04-01T20:03:12.390Z,8.97
2019-04-01T20:05:44.645Z,9.67
2019-04-01T20:08:16.805Z,7.63
2019-04-01T20:10:48.590Z,6.43
2019-04-01T20:13:22.182Z,9.00
2019-04-01T20:15:54.473Z,8.80
2019-04-01T20:18:26.901Z,11.20
2019-04-01T20:20:59.241Z,7.87
2019-04-01T20:23:31.577Z,11.07
2019-04-01T20:26:03.077Z,14.23
2019-04-01T20:28:34.474Z,12.90
2019-04-01T20:31:06.909Z,11.93
2019-04-01T20:33:39.811Z,10.37
2019-04-01T20:36:11.492Z,10.27
2019-04-01T20:38:43.110Z,11.27
2019-04-01T20:41:14.344Z,9.97
2019-04-01T20:43:45.077Z,11.43
2019-04-01T20:46:17.362Z,10.40
2019-04-01T20:48:48.490Z,10.03
2019-04-01T20:51:20.981Z,12.63
2019-04-01T20:53:53.558Z,21.23
2019-04-01T20:56:24.264Z,16.97
2019-04-01T20:58:56.091Z,12.50
2019-04-01T21:01:27.630Z,13.00
2019-04-01T21:03:58.964Z,11.27
2019-04-01T21:06:30.650Z,12.77
2019-04-01T21:09:02.034Z,10.20
2019-04-01T21:11:34.089Z,9.67
2019-04-01T21:14:05.658Z,11.53
2019-04-01T21:16:37.213Z,15.60
2019-04-01T21:19:08.597Z,14.73
2019-04-01T21:21:40.365Z,10.47
2019-04-01T21:24:12.292Z,13.27
2019-04-01T21:26:43.383Z,12.03
2019-04-01T21:29:14.734Z,12.37
2019-04-01T21:31:47.190Z,12.47
2019-04-01T21:34:19.753Z,13.53
2019-04-01T21:36:52.047Z,10.57
2019-04-01T21:39:24.621Z,11.37
2019-04-01T21:41:56.487Z,12.10
2019-04-01T21:44:27.958Z,18.83
2019-04-01T21:46:59.734Z,11.20
2019-04-01T21:49:32.809Z,16.47
2019-04-01T21:52:04.563Z,15.60
2019-04-01T21:54:36.199Z,13.93
2019-04-01T21:57:07.383Z,11.40
2019-04-01T21:59:39.410Z,13.53
2019-04-01T22:02:10.442Z,9.77
2019-04-01T22:04:42.921Z,15.33
2019-04-01T22:07:14.102Z,15.53
2019-04-01T22:09:45.871Z,12.17
2019-04-01T22:12:17.991Z,11.47
2019-04-01T22:14:49.442Z,15.60
2019-04-01T22:17:20.717Z,11.30
2019-04-01T22:19:52.291Z,10.97
2019-04-01T22:22:24.284Z,11.63
2019-04-01T22:24:55.751Z,15.70
2019-04-01T22:27:27.995Z,11.10
2019-04-01T22:29:59.476Z,13.50
2019-04-01T22:32:43.393Z,9.83
2019-04-01T22:35:14.922Z,12.17
2019-04-01T22:37:46.622Z,12.60
2019-04-01T22:40:17.680Z,13.33
2019-04-01T22:42:56.186Z,12.50
2019-04-01T22:45:29.550Z,11.40
2019-04-01T22:48:00.610Z,12.47
2019-04-01T22:50:31.357Z,10.60
2019-04-01T22:53:04.186Z,16.10
2019-04-01T22:55:36.195Z,14.93
2019-04-01T22:58:07.846Z,13.23
2019-04-01T23:00:39.201Z,11.70
2019-04-01T23:03:11.445Z,14.20
2019-04-01T23:05:43.473Z,11.17
2019-04-01T23:08:15.278Z,11.53
2019-04-01T23:10:45.979Z,11.83
2019-04-01T23:13:17.378Z,13.20
2019-04-01T23:15:48.726Z,11.97
2019-04-01T23:18:20.482Z,12.57
2019-04-01T23:20:52.205Z,12.57
2019-04-01T23:23:23.642Z,12.70
2019-04-01T23:25:55.310Z,13.13
2019-04-01T23:28:28.317Z,16.40
2019-04-01T23:31:00.174Z,13.33
2019-04-01T23:33:32.154Z,11.67
2019-04-01T23:36:02.860Z,12.77
2019-04-01T23:38:33.885Z,11.20
2019-04-01T23:41:04.573Z,11.17
2019-04-01T23:43:35.909Z,13.80
2019-04-01T23:46:07.316Z,10.47
2019-04-01T23:48:39.144Z,10.30
2019-04-01T23:51:10.213Z,14.37
2019-04-01T23:53:42.338Z,14.13
2019-04-01T23:56:13.386Z,11.50
2019-04-01T23:58:45.580Z,12.07
